AST,Max TemperatureF,Mean TemperatureF,Min TemperatureF,Max Dew PointF,MeanDew PointF,Min DewpointF,Max Humidity, Mean Humidity, Min Humidity, Max Sea Level PressureIn, Mean Sea Level PressureIn, Min Sea Level PressureIn, Max VisibilityMiles, Mean VisibilityMiles, Min VisibilityMiles, Max Wind SpeedMPH, Mean Wind SpeedMPH, Max Gust SpeedMPH,PrecipitationIn, CloudCover, Events, WindDirDegrees
2013-1-1,79,72,64,61,58,49,83,66,27,30.15,30.09,30.04,10,5,4,15,8,24,0.00,,,336
2013-1-2,78,71,64,61,57,54,78,63,42,30.18,30.12,30.09,9,8,7,9,3,,0.00,,,322
2013-1-3,80,72,63,63,58,50,83,64,28,30.17,30.10,30.06,9,6,4,13,6,,0.00,,,314
2013-1-4,73,68,64,61,55,48,78,61,33,30.19,30.12,30.06,7,6,4,12,9,,0.00,,,314
2013-1-5,75,68,60,57,52,45,82,58,34,30.10,30.02,29.95,9,6,5,9,5,,0.00,,,140
2013-1-6,76,70,63,64,61,57,88,70,46,30.02,29.94,29.89,9,6,5,17,8,,0.00,,,155
2013-1-7,84,76,67,64,57,45,83,57,25,29.99,29.90,29.83,9,3,1,16,9,,0.00,,,161
2013-1-8,79,74,68,61,56,45,73,54,32,30.09,30.01,29.95,7,6,4,14,9,,0.00,,,353
2013-1-9,77,72,66,68,62,55,88,71,47,30.05,29.96,29.92,9,6,5,13,8,,0.00,1,,57
2013-1-10,82,73,64,68,60,48,94,65,38,30.09,29.94,29.86,7,5,2,20,8,32,0.00,,,277
2013-1-11,67,63,57,48,40,33,56,43,20,30.31,30.21,30.09,7,5,4,24,19,38,0.00,,,330
2013-1-12,67,60,54,45,42,39,63,50,28,30.36,30.28,30.24,7,5,4,21,13,26,0.00,,,316
2013-1-13,67,61,55,48,45,43,72,57,36,30.27,30.21,30.15,7,7,6,14,10,,0.00,,,309
2013-1-14,69,63,57,48,44,36,63,52,33,30.23,30.16,30.12,7,6,6,18,11,28,0.00,,,311
2013-1-15,66,60,55,48,46,43,67,58,39,30.24,30.17,30.12,10,6,5,22,13,31,0.00,1,,307
2013-1-16,67,60,54,51,44,34,72,55,31,30.27,30.21,30.15,9,6,5,16,12,28,0.00,1,,310
2013-1-17,71,63,55,50,45,34,82,54,16,30.34,30.26,30.24,9,7,5,10,7,,0.00,,,321
2013-1-18,71,64,56,52,46,43,72,53,34,30.29,30.21,30.15,7,6,6,10,4,,0.00,1,,137
2013-1-19,72,64,57,54,50,45,77,60,32,30.27,30.19,30.15,9,7,6,14,4,,0.00,,,128
2013-1-20,73,66,58,57,54,48,82,67,36,30.20,30.13,30.09,9,7,5,10,4,,0.00,,,146
2013-1-21,77,68,60,61,54,41,94,64,19,30.21,30.12,30.06,9,4,2,10,4,,0.00,1,,154
2013-1-22,78,70,61,59,55,50,77,61,36,30.22,30.16,30.12,7,5,4,14,5,,0.00,,,329
2013-1-23,75,68,60,61,57,50,88,71,36,30.25,30.17,30.12,9,4,4,8,5,,0.00,,,8
2013-1-24,77,68,58,61,54,45,94,66,24,30.17,30.10,30.06,6,4,0,12,4,,0.00,,Fog,171
2013-1-25,82,71,60,59,52,37,82,57,21,30.18,30.09,30.06,7,6,6,10,6,,0.00,,,175
2013-1-26,78,70,61,64,58,52,83,66,41,30.15,30.10,30.06,9,7,6,13,5,,0.00,,,139
2013-1-27,85,74,62,63,56,43,83,63,23,30.14,30.08,30.04,9,6,5,12,5,,0.00,1,,160
2013-1-28,81,72,64,64,56,43,83,63,18,30.09,30.01,29.92,9,5,4,9,5,,0.00,,,154
2013-1-29,78,72,67,64,59,48,88,66,34,29.96,29.89,29.83,7,4,4,21,7,,0.00,,,134
2013-1-30,73,70,64,57,53,50,68,58,44,30.03,29.96,29.92,7,2,1,20,14,,0.00,6,,348
2013-1-31,72,67,62,66,60,55,88,77,64,29.99,29.91,29.86,7,4,3,13,6,,0.00,5,,54